createdAt,value
2023-04-12T11:07:11.803Z,0.68
2023-04-12T11:09:44.056Z,0.70
2023-04-12T11:12:18.709Z,0.80
2023-04-12T11:14:48.670Z,0.70
2023-04-12T11:17:25.936Z,1.15
2023-04-12T11:19:59.712Z,0.80
2023-04-12T11:22:31.522Z,0.70
2023-04-12T11:25:01.832Z,0.90
2023-04-12T11:27:31.841Z,0.70
2023-04-12T11:30:06.574Z,0.63
2023-04-12T11:32:43.117Z,1.10
2023-04-12T11:35:14.392Z,1.00
2023-04-12T11:37:49.811Z,0.95
2023-04-12T11:40:18.979Z,0.70
2023-04-12T11:42:49.212Z,0.85
2023-04-12T11:45:22.429Z,0.50
2023-04-12T11:47:53.566Z,0.63
2023-04-12T11:50:32.938Z,0.60
2023-04-12T11:53:21.181Z,0.50
2023-04-12T11:55:54.709Z,0.50
2023-04-12T11:58:28.197Z,0.50
2023-04-12T12:01:01.180Z,0.50
2023-04-12T12:03:30.517Z,0.60
2023-04-12T12:06:01.333Z,0.50
2023-04-12T12:08:33.112Z,0.73
2023-04-12T12:11:08.175Z,0.57
2023-04-12T12:13:53.124Z,0.70
2023-04-12T12:16:29.004Z,0.67
2023-04-12T12:18:59.405Z,0.40
2023-04-12T12:21:29.995Z,0.50
2023-04-12T12:24:02.524Z,0.70
2023-04-12T12:26:33.359Z,0.70
2023-04-12T12:29:02.634Z,0.55
2023-04-12T12:31:33.157Z,0.50
2023-04-12T12:34:07.370Z,0.60
2023-04-12T12:36:39.868Z,0.60
2023-04-12T12:39:11.787Z,0.50
2023-04-12T12:41:42.334Z,0.60
2023-04-12T12:44:12.299Z,0.60
2023-04-12T12:46:52.104Z,0.77
2023-04-12T12:49:23.587Z,0.70
2023-04-12T12:51:53.299Z,0.88
2023-04-12T12:54:39.568Z,0.47
2023-04-12T12:57:11.175Z,0.50
2023-04-12T12:59:39.151Z,0.70
2023-04-12T13:02:07.426Z,0.82
2023-04-12T13:04:35.914Z,0.70
2023-04-12T13:07:06.409Z,0.60
2023-04-12T13:09:35.931Z,0.60
2023-04-12T13:12:04.187Z,0.50
2023-04-12T13:14:32.807Z,0.50
2023-04-12T13:17:00.901Z,0.90
2023-04-12T13:19:29.417Z,0.60
2023-04-12T13:21:58.748Z,0.60
2023-04-12T13:24:27.600Z,0.60
2023-04-12T13:26:58.206Z,0.73
2023-04-12T13:29:26.444Z,0.50
2023-04-12T13:31:54.559Z,0.80
2023-04-12T13:34:25.859Z,0.75
2023-04-12T13:36:54.357Z,0.70
2023-04-12T13:39:22.929Z,0.50
2023-04-12T13:41:51.973Z,0.55
2023-04-12T13:44:24.723Z,0.52
2023-04-12T13:46:52.921Z,0.60
2023-04-12T13:49:21.481Z,1.20
2023-04-12T13:51:49.789Z,0.70
2023-04-12T13:54:18.027Z,0.70
2023-04-12T13:56:46.389Z,0.60
2023-04-12T13:59:14.461Z,0.73
2023-04-12T14:01:44.207Z,0.80
2023-04-12T14:04:12.464Z,0.68
2023-04-12T14:06:40.582Z,0.95
2023-04-12T14:09:08.949Z,1.02
2023-04-12T14:11:46.950Z,0.93
2023-04-12T14:14:20.889Z,0.95
2023-04-12T14:16:50.736Z,1.67
2023-04-12T14:19:19.126Z,1.50
2023-04-12T14:21:50.058Z,0.90
2023-04-12T14:24:24.179Z,0.60
2023-04-12T14:26:53.732Z,0.60
2023-04-12T14:29:22.257Z,0.60
2023-04-12T14:32:01.466Z,0.70
2023-04-12T14:34:31.254Z,0.80
2023-04-12T14:37:18.187Z,0.70
2023-04-12T14:39:46.347Z,0.73
2023-04-12T14:42:14.390Z,0.80
2023-04-12T14:44:42.703Z,0.63
2023-04-12T14:47:12.218Z,1.10
2023-04-12T14:49:42.940Z,0.93
2023-04-12T14:52:11.363Z,1.30
2023-04-12T14:54:44.995Z,1.10
2023-04-12T14:57:13.176Z,1.13
2023-04-12T14:59:41.488Z,1.23
2023-04-12T15:02:09.982Z,1.02
2023-04-12T15:04:39.759Z,0.77
2023-04-12T15:07:09.300Z,1.15
2023-04-12T15:09:37.568Z,1.17
2023-04-12T15:12:06.109Z,1.25
2023-04-12T15:14:34.362Z,0.82
2023-04-12T15:17:02.591Z,1.05
2023-04-12T15:19:32.931Z,0.73
2023-04-12T15:22:02.558Z,0.90
2023-04-12T15:24:31.782Z,0.90
2023-04-12T15:27:04.332Z,0.80
2023-04-12T15:29:34.026Z,1.25
2023-04-12T15:32:08.559Z,1.20
2023-04-12T15:34:40.622Z,0.88
2023-04-12T15:37:13.729Z,0.90
2023-04-12T15:39:42.364Z,1.02
2023-04-12T15:42:12.784Z,1.52
2023-04-12T15:44:42.660Z,1.55
2023-04-12T15:47:12.443Z,1.05
2023-04-12T15:49:40.948Z,0.90
2023-04-12T15:52:10.499Z,1.17
2023-04-12T15:54:43.732Z,0.70
2023-04-12T15:57:15.153Z,0.73
2023-04-12T15:59:43.961Z,0.80
2023-04-12T16:02:13.385Z,0.70
2023-04-12T16:04:44.486Z,1.00
2023-04-12T16:07:16.178Z,1.00
2023-04-12T16:09:47.013Z,0.63
2023-04-12T16:12:18.062Z,0.50
2023-04-12T16:14:46.476Z,0.75
2023-04-12T16:17:16.097Z,1.02
2023-04-12T16:19:45.007Z,1.92
2023-04-12T16:22:13.484Z,1.63
2023-04-12T16:24:43.250Z,1.27
2023-04-12T16:27:11.778Z,1.40
2023-04-12T16:29:40.449Z,0.70
2023-04-12T16:32:10.584Z,0.82
2023-04-12T16:34:41.264Z,1.10
2023-04-12T16:37:11.515Z,1.10
2023-04-12T16:39:40.326Z,0.98
2023-04-12T16:42:11.205Z,0.70
2023-04-12T16:44:39.553Z,0.80
2023-04-12T16:47:09.593Z,1.30
2023-04-12T16:49:40.594Z,1.98
2023-04-12T16:52:14.261Z,2.15
2023-04-12T16:54:43.369Z,3.17
2023-04-12T16:57:14.733Z,4.00
2023-04-12T16:59:44.118Z,2.63
2023-04-12T17:02:12.688Z,2.65
2023-04-12T17:04:41.123Z,1.75
2023-04-12T17:07:09.759Z,1.70
2023-04-12T17:09:38.228Z,1.67
2023-04-12T17:12:10.501Z,0.50
2023-04-12T17:14:40.170Z,0.70
2023-04-12T17:17:09.281Z,0.60
2023-04-12T17:19:40.066Z,0.60
2023-04-12T17:22:09.784Z,0.75
2023-04-12T17:24:42.627Z,0.95
2023-04-12T17:27:11.041Z,0.73
2023-04-12T17:29:40.742Z,0.88
2023-04-12T17:32:09.746Z,0.80
2023-04-12T17:34:38.365Z,0.70
2023-04-12T17:37:19.527Z,1.05
2023-04-12T17:39:49.935Z,0.50
2023-04-12T17:42:19.424Z,0.70
2023-04-12T17:44:49.513Z,0.50
2023-04-12T17:47:17.850Z,0.50
2023-04-12T17:49:47.029Z,0.63
2023-04-12T17:52:15.530Z,0.60
2023-04-12T17:54:49.634Z,0.50
2023-04-12T17:57:18.624Z,0.63
2023-04-12T17:59:48.302Z,0.90
2023-04-12T18:02:17.660Z,0.70
2023-04-12T18:04:46.810Z,0.68
2023-04-12T18:07:15.547Z,0.50
2023-04-12T18:09:44.892Z,0.60
2023-04-12T18:12:16.507Z,0.60
2023-04-12T18:14:44.989Z,1.00
2023-04-12T18:17:14.994Z,1.13
2023-04-12T18:19:43.740Z,0.95
2023-04-12T18:22:12.732Z,0.88
2023-04-12T18:24:40.933Z,1.20
2023-04-12T18:27:09.517Z,1.48
2023-04-12T18:29:37.553Z,1.77
2023-04-12T18:32:05.992Z,1.30
2023-04-12T18:34:35.524Z,1.17
2023-04-12T18:37:04.146Z,1.00
2023-04-12T18:39:33.182Z,1.30
2023-04-12T18:42:01.917Z,1.80
2023-04-12T18:44:31.007Z,1.65
2023-04-12T18:46:59.539Z,2.03
2023-04-12T18:49:35.862Z,2.25
2023-04-12T18:52:05.176Z,2.22
2023-04-12T18:54:33.600Z,2.33
2023-04-12T18:57:03.428Z,2.00
2023-04-12T18:59:34.541Z,1.58
2023-04-12T19:02:03.227Z,2.25
2023-04-12T19:04:31.799Z,2.15
2023-04-12T19:07:04.168Z,2.28
2023-04-12T19:09:33.120Z,2.03
2023-04-12T19:12:01.604Z,2.10
2023-04-12T19:14:32.406Z,4.20
2023-04-12T19:17:01.026Z,1.83
2023-04-12T19:19:29.557Z,1.92
2023-04-12T19:21:58.122Z,1.42
2023-04-12T19:24:27.753Z,1.10
2023-04-12T19:26:56.183Z,1.23
2023-04-12T19:29:24.379Z,0.80
2023-04-12T19:31:54.239Z,0.88
2023-04-12T19:34:23.108Z,0.70
2023-04-12T19:36:51.486Z,0.57
2023-04-12T19:39:20.422Z,0.60
2023-04-12T19:41:51.550Z,0.70
2023-04-12T19:44:26.103Z,0.80
2023-04-12T19:46:56.122Z,0.65
2023-04-12T19:49:27.293Z,0.70
2023-04-12T19:51:56.352Z,0.80
2023-04-12T19:54:28.311Z,1.00
2023-04-12T19:57:23.496Z,0.70
2023-04-12T19:59:57.334Z,0.95
2023-04-12T20:02:26.449Z,0.98
2023-04-12T20:04:55.738Z,0.68
2023-04-12T20:07:25.309Z,1.20
2023-04-12T20:09:53.845Z,0.82
2023-04-12T20:12:24.582Z,0.70
2023-04-12T20:14:54.642Z,1.50
2023-04-12T20:17:23.933Z,0.60
2023-04-12T20:19:56.229Z,1.00
2023-04-12T20:22:28.762Z,1.35
2023-04-12T20:24:58.660Z,1.55
2023-04-12T20:27:30.867Z,1.45
2023-04-12T20:30:00.383Z,0.70
2023-04-12T20:32:29.729Z,0.75
2023-04-12T20:34:58.434Z,0.52
2023-04-12T20:37:31.364Z,0.70
2023-04-12T20:40:09.583Z,1.00
2023-04-12T20:42:39.187Z,1.00
2023-04-12T20:45:08.312Z,0.90
2023-04-12T20:47:38.402Z,0.80
2023-04-12T20:50:07.249Z,1.20
2023-04-12T20:52:35.346Z,0.93
2023-04-12T20:55:05.297Z,1.35
2023-04-12T20:57:36.132Z,0.80
2023-04-12T21:00:12.718Z,0.85
2023-04-12T21:02:43.511Z,0.70
2023-04-12T21:05:12.006Z,1.00
2023-04-12T21:07:41.467Z,0.95
2023-04-12T21:10:14.790Z,0.98
2023-04-12T21:12:45.334Z,0.82
2023-04-12T21:15:17.921Z,0.50
2023-04-12T21:17:46.494Z,0.63
2023-04-12T21:20:16.143Z,0.90
2023-04-12T21:22:46.924Z,0.60
2023-04-12T21:25:17.133Z,1.00
2023-04-12T21:27:48.177Z,0.60
2023-04-12T21:30:17.937Z,0.90
2023-04-12T21:32:46.613Z,0.60
2023-04-12T21:35:16.389Z,0.50
2023-04-12T21:37:44.849Z,0.70
2023-04-12T21:40:13.546Z,0.60
2023-04-12T21:42:46.656Z,0.55
2023-04-12T21:45:14.781Z,0.55
2023-04-12T21:47:44.946Z,0.50
2023-04-12T21:50:16.614Z,0.80
2023-04-12T21:52:49.499Z,0.50
2023-04-12T21:55:18.678Z,0.75
2023-04-12T21:57:47.046Z,0.73
2023-04-12T22:00:15.776Z,0.60
2023-04-12T22:02:49.311Z,0.60
2023-04-12T22:05:17.953Z,0.70
2023-04-12T22:07:46.182Z,0.52
2023-04-12T22:10:14.956Z,0.70
2023-04-12T22:12:50.500Z,0.65
2023-04-12T22:15:20.626Z,0.68
2023-04-12T22:17:50.973Z,0.73
2023-04-12T22:20:20.003Z,0.65
2023-04-12T22:22:48.715Z,0.82
2023-04-12T22:25:21.331Z,0.70
2023-04-12T22:27:53.143Z,0.70
2023-04-12T22:30:21.423Z,0.60
2023-04-12T22:32:51.791Z,0.60
2023-04-12T22:35:20.566Z,0.57
2023-04-12T22:37:51.839Z,0.60
2023-04-12T22:40:22.320Z,0.70
2023-04-12T22:42:50.724Z,0.50
2023-04-12T22:45:19.244Z,0.63
2023-04-12T22:47:48.018Z,0.80
2023-04-12T22:50:17.599Z,0.70
2023-04-12T22:52:49.996Z,1.10
2023-04-12T22:55:22.613Z,0.90
2023-04-12T22:57:51.061Z,0.50
2023-04-12T23:00:20.919Z,0.77
2023-04-12T23:02:50.570Z,1.17
2023-04-12T23:05:59.546Z,0.47
2023-04-12T23:08:49.594Z,0.60
2023-04-12T23:11:44.013Z,0.50
2023-04-12T23:14:12.962Z,0.80
2023-04-12T23:16:44.405Z,0.60
2023-04-12T23:19:14.926Z,0.60
2023-04-12T23:21:51.025Z,0.50
2023-04-12T23:24:21.576Z,0.50
2023-04-12T23:26:55.895Z,0.68
2023-04-12T23:29:28.502Z,0.50
2023-04-12T23:32:00.800Z,0.50
2023-04-12T23:34:45.283Z,0.60
2023-04-12T23:37:15.221Z,0.70
2023-04-12T23:39:45.198Z,0.60
2023-04-12T23:42:13.363Z,0.60
2023-04-12T23:44:41.950Z,0.60
2023-04-12T23:47:10.192Z,0.50
2023-04-12T23:49:38.629Z,0.60
2023-04-12T23:52:10.243Z,0.60
2023-04-12T23:54:38.402Z,0.60
2023-04-12T23:57:08.417Z,0.60
2023-04-12T23:59:36.894Z,0.60
